createdAt,value
2019-03-11T00:02:14.630Z,0.32
2019-03-11T00:07:23.782Z,0.34
2019-03-11T00:12:33.003Z,0.63
2019-03-11T00:17:42.155Z,0.58
2019-03-11T00:22:51.427Z,0.31
2019-03-11T00:28:00.616Z,0.52
2019-03-11T00:33:09.834Z,0.24
2019-03-11T00:38:19.087Z,0.39
2019-03-11T00:43:28.344Z,0.23
2019-03-11T00:48:37.574Z,0.55
2019-03-11T00:53:46.845Z,0.52
2019-03-11T00:58:56.183Z,0.35
2019-03-11T01:04:05.335Z,0.40
2019-03-11T01:09:14.603Z,0.22
2019-03-11T01:14:23.847Z,0.56
2019-03-11T01:19:33.113Z,0.53
2019-03-11T01:24:42.393Z,0.37
2019-03-11T01:29:51.594Z,0.12
2019-03-11T01:35:00.859Z,0.33
2019-03-11T01:40:10.063Z,0.29
2019-03-11T01:45:19.492Z,0.49
2019-03-11T01:50:28.682Z,0.32
2019-03-11T01:55:38.021Z,0.20
2019-03-11T02:00:47.226Z,0.30
2019-03-11T02:05:56.522Z,0.16
2019-03-11T02:11:05.739Z,0.36
2019-03-11T02:16:15.101Z,0.33
2019-03-11T02:21:24.281Z,0.28
2019-03-11T02:26:33.483Z,0.44
2019-03-11T02:31:42.643Z,0.28
2019-03-11T02:36:52.082Z,0.35
2019-03-11T02:42:01.160Z,0.70
2019-03-11T02:47:10.366Z,0.25
2019-03-11T02:52:19.538Z,0.34
2019-03-11T02:57:28.866Z,0.29
2019-03-11T03:02:38.063Z,0.23
2019-03-11T03:07:47.419Z,0.48
2019-03-11T03:12:56.631Z,0.30
2019-03-11T03:18:05.941Z,0.18
2019-03-11T03:23:13.689Z,0.16
2019-03-11T03:28:22.998Z,0.36
2019-03-11T03:33:32.111Z,0.32
2019-03-11T03:38:41.344Z,0.27
2019-03-11T03:43:50.614Z,0.15
2019-03-11T03:48:59.905Z,0.26
2019-03-11T03:54:09.264Z,0.32
2019-03-11T03:59:18.449Z,0.34
2019-03-11T04:04:27.754Z,0.27
2019-03-11T04:09:36.994Z,0.22
2019-03-11T04:14:46.215Z,0.36
2019-03-11T04:19:55.457Z,0.27
2019-03-11T04:25:04.724Z,0.40
2019-03-11T04:30:14.013Z,0.26
2019-03-11T04:35:23.243Z,0.18
2019-03-11T04:40:32.659Z,0.24
2019-03-11T04:45:41.860Z,0.27
2019-03-11T04:50:51.242Z,0.36
2019-03-11T04:56:00.430Z,0.31
2019-03-11T05:01:09.667Z,0.45
2019-03-11T05:06:18.958Z,0.24
2019-03-11T05:11:28.311Z,0.24
2019-03-11T05:16:37.672Z,0.19
2019-03-11T05:21:47.131Z,0.34
2019-03-11T05:26:56.290Z,0.21
2019-03-11T05:32:05.599Z,0.24
2019-03-11T05:37:14.851Z,0.28
2019-03-11T05:42:24.206Z,0.60
2019-03-11T05:47:33.454Z,0.26
2019-03-11T05:52:42.751Z,0.21
2019-03-11T05:57:51.959Z,0.17
2019-03-11T06:03:01.237Z,0.20
2019-03-11T06:08:10.427Z,0.25
2019-03-11T06:13:19.753Z,0.20
2019-03-11T06:18:28.971Z,0.17
2019-03-11T06:23:38.339Z,0.36
2019-03-11T06:28:47.526Z,0.47
2019-03-11T06:33:56.871Z,0.21
2019-03-11T06:39:06.361Z,0.35
2019-03-11T06:44:15.497Z,0.23
2019-03-11T06:49:24.814Z,0.29
2019-03-11T06:54:34.070Z,0.24
2019-03-11T06:59:43.323Z,0.34
2019-03-11T07:04:52.639Z,0.29
2019-03-11T07:10:01.985Z,0.47
2019-03-11T07:15:11.621Z,0.51
2019-03-11T07:20:20.858Z,0.47
2019-03-11T07:25:30.227Z,0.61
2019-03-11T07:30:39.644Z,0.62
2019-03-11T07:35:49.108Z,0.74
2019-03-11T07:40:58.371Z,0.52
2019-03-11T07:46:07.723Z,0.56
2019-03-11T07:51:17.085Z,0.54
2019-03-11T07:56:26.431Z,0.45
2019-03-11T08:01:35.685Z,0.42
2019-03-11T08:06:45.148Z,0.43
2019-03-11T08:11:54.379Z,0.38
2019-03-11T08:17:03.835Z,0.52
2019-03-11T08:22:13.352Z,0.26
2019-03-11T08:27:22.735Z,0.45
2019-03-11T08:32:31.911Z,0.33
2019-03-11T08:37:41.247Z,0.32
2019-03-11T08:42:50.483Z,0.40
2019-03-11T08:47:59.765Z,0.38
2019-03-11T08:53:09.161Z,0.22
2019-03-11T08:58:18.454Z,0.39
2019-03-11T09:03:27.759Z,0.31
2019-03-11T09:08:37.174Z,0.50
2019-03-11T09:13:46.426Z,0.44
2019-03-11T09:18:55.565Z,0.36
2019-03-11T09:24:04.911Z,0.30
2019-03-11T09:29:14.136Z,0.37
2019-03-11T09:34:23.572Z,0.48
2019-03-11T09:39:32.908Z,0.35
2019-03-11T09:44:42.315Z,0.25
2019-03-11T09:49:51.589Z,0.24
2019-03-11T09:55:00.935Z,0.48
2019-03-11T10:00:10.226Z,0.23
2019-03-11T10:05:19.592Z,0.38
2019-03-11T10:10:28.932Z,0.35
2019-03-11T10:15:38.156Z,0.26
2019-03-11T10:20:47.527Z,0.35
2019-03-11T10:25:56.811Z,0.18
2019-03-11T10:31:06.099Z,0.25
2019-03-11T10:36:15.357Z,0.55
2019-03-11T10:41:24.821Z,0.19
2019-03-11T10:46:34.074Z,0.33
2019-03-11T10:51:43.431Z,0.50
2019-03-11T10:56:52.662Z,0.18
2019-03-11T11:02:02.105Z,0.26
2019-03-11T11:07:11.435Z,0.22
2019-03-11T11:12:20.796Z,0.20
2019-03-11T11:17:30.107Z,0.09
2019-03-11T11:22:39.453Z,0.17
2019-03-11T11:27:48.796Z,0.39
2019-03-11T11:32:58.179Z,0.19
2019-03-11T11:38:07.546Z,0.10
2019-03-11T11:43:16.839Z,0.24
2019-03-11T11:48:26.132Z,0.12
2019-03-11T11:53:35.435Z,0.24
2019-03-11T11:58:44.673Z,0.27
2019-03-11T12:03:53.962Z,0.21
2019-03-11T12:09:03.325Z,0.17
2019-03-11T12:14:12.543Z,0.14
2019-03-11T12:19:21.822Z,0.22
2019-03-11T12:24:31.136Z,0.21
2019-03-11T12:29:43.153Z,0.22
2019-03-11T12:34:42.412Z,0.14
2019-03-11T12:39:51.774Z,0.21
2019-03-11T12:45:00.979Z,0.15
2019-03-11T12:50:10.226Z,0.13
2019-03-11T12:55:21.368Z,0.20
2019-03-11T13:00:28.588Z,0.10
2019-03-11T13:05:38.074Z,0.18
2019-03-11T13:10:47.486Z,0.12
2019-03-11T13:15:56.950Z,0.13
2019-03-11T13:21:06.195Z,0.38
2019-03-11T13:26:15.463Z,0.14
2019-03-11T13:31:24.688Z,0.09
2019-03-11T13:36:33.950Z,0.31
2019-03-11T13:41:43.131Z,0.14
2019-03-11T13:46:52.735Z,0.15
2019-03-11T13:52:01.932Z,0.08
2019-03-11T13:57:11.209Z,0.13
2019-03-11T14:02:20.411Z,0.14
2019-03-11T14:07:29.770Z,0.12
2019-03-11T14:12:39.227Z,0.26
2019-03-11T14:17:48.440Z,0.29
2019-03-11T14:22:57.749Z,0.12
2019-03-11T14:28:07.137Z,0.13
2019-03-11T14:33:17.206Z,0.17
2019-03-11T14:38:25.414Z,0.14
2019-03-11T14:43:35.453Z,0.15
2019-03-11T14:48:34.871Z,0.21
2019-03-11T14:53:44.302Z,0.19
2019-03-11T14:58:53.538Z,0.13
2019-03-11T15:04:02.803Z,0.14
2019-03-11T15:09:12.093Z,0.11
2019-03-11T15:14:21.541Z,0.14
2019-03-11T15:19:30.768Z,0.31
2019-03-11T15:24:40.117Z,0.09
2019-03-11T15:29:49.519Z,0.14
2019-03-11T15:34:58.936Z,0.10
2019-03-11T15:40:08.176Z,0.17
2019-03-11T15:45:17.595Z,0.27
2019-03-11T15:50:26.838Z,0.15
2019-03-11T15:55:36.066Z,0.11
2019-03-11T16:00:45.479Z,0.15
2019-03-11T16:05:54.778Z,0.17
2019-03-11T16:11:04.126Z,0.09
2019-03-11T16:16:13.516Z,0.17
2019-03-11T16:21:22.835Z,0.24
2019-03-11T16:26:33.815Z,0.21
2019-03-11T16:31:33.347Z,0.15
2019-03-11T16:36:42.872Z,0.30
2019-03-11T16:41:52.806Z,0.37
2019-03-11T16:47:02.021Z,0.16
2019-03-11T16:52:11.326Z,0.12
2019-03-11T16:57:25.297Z,0.23
2019-03-11T17:02:24.669Z,0.14
2019-03-11T17:07:33.945Z,0.17
2019-03-11T17:12:43.285Z,0.12
2019-03-11T17:17:51.623Z,0.19
2019-03-11T17:23:01.357Z,0.17
2019-03-11T17:28:10.518Z,0.30
2019-03-11T17:33:19.973Z,0.29
2019-03-11T17:38:30.376Z,0.21
2019-03-11T17:43:30.720Z,0.19
2019-03-11T17:48:30.701Z,0.18
2019-03-11T17:53:40.014Z,0.21
2019-03-11T17:58:50.188Z,0.22
2019-03-11T18:03:49.575Z,0.23
2019-03-11T18:08:58.781Z,0.20
2019-03-11T18:14:08.066Z,0.42
2019-03-11T18:19:17.306Z,0.14
2019-03-11T18:24:26.690Z,0.21
2019-03-11T18:29:36.067Z,0.27
2019-03-11T18:34:45.523Z,0.28
2019-03-11T18:39:54.695Z,0.26
2019-03-11T18:45:03.927Z,0.25
2019-03-11T18:50:13.163Z,0.27
2019-03-11T18:55:22.404Z,0.32
2019-03-11T19:00:31.839Z,0.18
2019-03-11T19:05:41.127Z,0.32
2019-03-11T19:10:50.620Z,0.27
2019-03-11T19:16:05.163Z,0.23
2019-03-11T19:21:04.667Z,0.26
2019-03-11T19:26:13.967Z,0.19
2019-03-11T19:31:26.285Z,0.16
2019-03-11T19:36:25.672Z,0.16
2019-03-11T19:41:35.371Z,0.29
2019-03-11T19:46:44.632Z,0.23
2019-03-11T19:51:54.251Z,0.17
2019-03-11T19:57:03.535Z,0.53
2019-03-11T20:02:12.909Z,0.22
2019-03-11T20:07:22.247Z,0.31
2019-03-11T20:12:31.609Z,0.36
2019-03-11T20:17:40.928Z,0.27
2019-03-11T20:22:50.195Z,0.41
2019-03-11T20:27:59.539Z,0.28
2019-03-11T20:33:08.740Z,0.72
2019-03-11T20:38:18.054Z,0.31
2019-03-11T20:43:27.396Z,0.29
2019-03-11T20:48:36.794Z,0.23
2019-03-11T20:53:46.107Z,0.31
2019-03-11T20:58:55.901Z,0.67
2019-03-11T21:04:05.131Z,0.49
2019-03-11T21:09:14.413Z,0.41
2019-03-11T21:14:23.752Z,0.27
2019-03-11T21:19:33.104Z,0.27
2019-03-11T21:24:42.252Z,0.55
2019-03-11T21:29:51.665Z,0.75
2019-03-11T21:35:00.957Z,0.76
2019-03-11T21:40:10.171Z,0.32
2019-03-11T21:45:19.436Z,0.40
2019-03-11T21:50:28.685Z,1.01
2019-03-11T21:55:37.900Z,0.33
2019-03-11T22:00:47.381Z,0.38
2019-03-11T22:05:56.592Z,0.46
2019-03-11T22:11:05.871Z,0.66
2019-03-11T22:16:15.089Z,0.23
2019-03-11T22:21:24.383Z,0.41
2019-03-11T22:26:33.593Z,0.41
2019-03-11T22:31:43.007Z,0.75
2019-03-11T22:36:52.164Z,0.79
2019-03-11T22:42:01.377Z,1.81
2019-03-11T22:47:10.615Z,1.34
2019-03-11T22:52:19.879Z,1.12
2019-03-11T22:57:29.905Z,0.74
2019-03-11T23:02:39.978Z,0.72
2019-03-11T23:07:46.786Z,0.72
2019-03-11T23:12:56.043Z,0.58
2019-03-11T23:18:05.248Z,0.44
2019-03-11T23:23:14.399Z,0.87
2019-03-11T23:28:23.726Z,0.93
2019-03-11T23:33:32.887Z,0.58
2019-03-11T23:38:42.403Z,0.36
2019-03-11T23:43:51.583Z,0.68
2019-03-11T23:49:00.936Z,0.54
2019-03-11T23:54:10.186Z,0.46
2019-03-11T23:59:19.418Z,0.36
